createdAt,value
2022-10-30T00:02:32.026Z,15.93
2022-10-30T00:07:35.442Z,19.30
2022-10-30T00:12:38.868Z,14.10
2022-10-30T00:17:43.608Z,15.38
2022-10-30T00:22:47.037Z,15.35
2022-10-30T00:27:50.427Z,13.88
2022-10-30T00:32:55.403Z,13.83
2022-10-30T00:37:59.307Z,12.20
2022-10-30T00:43:02.894Z,12.60
2022-10-30T00:48:07.772Z,13.75
2022-10-30T00:53:17.578Z,15.47
2022-10-30T00:58:27.000Z,19.83
2022-10-30T01:03:32.819Z,15.68
2022-10-30T01:08:37.343Z,16.23
2022-10-30T01:13:43.635Z,16.73
2022-10-30T01:18:54.856Z,19.33
2022-10-30T01:24:15.550Z,16.67
2022-10-30T01:29:36.572Z,18.65
2022-10-30T01:34:47.708Z,21.67
2022-10-30T01:39:51.312Z,21.83
2022-10-30T01:44:55.653Z,22.45
2022-10-30T01:50:15.236Z,24.23
2022-10-30T01:55:30.843Z,19.53
2022-10-30T02:00:34.440Z,19.17
2022-10-30T02:05:42.571Z,17.80
2022-10-30T02:10:49.371Z,14.75
2022-10-30T02:15:53.066Z,16.60
2022-10-30T02:20:57.885Z,17.73
2022-10-30T02:26:01.293Z,18.10
2022-10-30T02:31:04.852Z,17.83
2022-10-30T02:36:10.225Z,22.17
2022-10-30T02:41:14.701Z,21.77
2022-10-30T02:46:18.886Z,21.50
2022-10-30T02:51:23.544Z,23.25
2022-10-30T02:56:26.962Z,21.77
2022-10-30T03:01:30.626Z,22.90
2022-10-30T03:06:37.083Z,19.90
2022-10-30T03:11:40.564Z,21.75
2022-10-30T03:16:43.988Z,20.23
2022-10-30T03:21:49.140Z,19.27
2022-10-30T03:26:52.553Z,17.80
2022-10-30T03:31:56.015Z,21.83
2022-10-30T03:37:02.523Z,20.23
2022-10-30T03:42:06.669Z,20.88
2022-10-30T03:52:22.210Z,20.87
2022-10-30T03:57:26.282Z,19.65
2022-10-30T04:02:51.366Z,13.05
2022-10-30T04:07:59.663Z,18.30
2022-10-30T04:13:06.581Z,20.23
2022-10-30T04:18:12.767Z,19.67
2022-10-30T04:23:18.967Z,22.27
2022-10-30T04:28:22.714Z,23.70
2022-10-30T04:33:26.098Z,21.40
2022-10-30T04:38:32.216Z,19.55
2022-10-30T04:43:36.436Z,22.30
2022-10-30T04:48:41.149Z,15.60
2022-10-30T04:53:46.409Z,16.40
2022-10-30T04:58:52.522Z,14.70
2022-10-30T05:03:59.128Z,18.02
2022-10-30T05:09:05.117Z,20.73
2022-10-30T05:14:11.939Z,17.75
2022-10-30T05:19:15.530Z,21.05
2022-10-30T05:24:28.281Z,19.90
2022-10-30T05:29:31.697Z,21.55
2022-10-30T05:34:35.419Z,18.55
2022-10-30T05:39:41.130Z,23.17
2022-10-30T05:45:00.774Z,20.27
2022-10-30T05:50:07.865Z,18.70
2022-10-30T05:55:13.895Z,18.60
2022-10-30T06:00:40.761Z,18.40
2022-10-30T06:05:47.313Z,20.85
2022-10-30T06:10:54.857Z,20.67
2022-10-30T06:16:13.674Z,20.40
2022-10-30T06:21:35.589Z,18.50
2022-10-30T06:26:52.346Z,16.98
2022-10-30T06:32:00.848Z,18.00
2022-10-30T06:37:08.845Z,16.97
2022-10-30T06:42:13.674Z,20.52
2022-10-30T06:47:26.433Z,18.57
2022-10-30T06:52:30.717Z,16.45
2022-10-30T06:57:35.738Z,13.52
2022-10-30T07:02:59.463Z,11.68
2022-10-30T07:08:04.242Z,12.85
2022-10-30T07:13:10.309Z,13.80
2022-10-30T07:18:22.682Z,10.52
2022-10-30T07:23:28.267Z,13.03
2022-10-30T07:28:42.369Z,9.65
2022-10-30T07:34:02.688Z,9.77
2022-10-30T07:39:24.523Z,10.90
2022-10-30T07:44:52.592Z,10.40
2022-10-30T07:50:05.820Z,7.63
2022-10-30T07:55:11.273Z,8.63
2022-10-30T08:00:22.113Z,9.30
2022-10-30T08:05:36.740Z,10.23
2022-10-30T08:10:46.157Z,8.65
2022-10-30T08:15:51.361Z,10.20
2022-10-30T08:20:54.738Z,14.85
2022-10-30T08:26:01.292Z,9.82
2022-10-30T08:31:07.612Z,10.97
2022-10-30T08:36:29.531Z,9.23
2022-10-30T08:41:32.964Z,10.73
2022-10-30T08:46:38.037Z,11.10
2022-10-30T08:51:41.432Z,9.68
2022-10-30T08:56:46.900Z,11.75
2022-10-30T09:01:53.504Z,9.10
2022-10-30T09:06:56.872Z,10.85
2022-10-30T09:12:35.504Z,9.40
2022-10-30T09:17:40.419Z,10.00
2022-10-30T09:22:44.532Z,10.32
2022-10-30T09:27:48.664Z,9.45
2022-10-30T09:32:59.859Z,9.20
2022-10-30T09:38:23.333Z,9.32
2022-10-30T09:43:39.235Z,8.07
2022-10-30T09:49:03.138Z,8.70
2022-10-30T09:54:15.711Z,9.73
2022-10-30T09:59:36.401Z,10.70
2022-10-30T10:04:45.561Z,8.27
2022-10-30T10:09:52.271Z,10.13
2022-10-30T10:15:15.847Z,8.13
2022-10-30T10:20:31.465Z,8.23
2022-10-30T10:25:36.670Z,10.45
2022-10-30T10:30:47.841Z,10.07
2022-10-30T10:36:17.677Z,7.93
2022-10-30T10:41:32.191Z,9.43
2022-10-30T10:46:49.401Z,8.00
2022-10-30T10:51:57.969Z,10.20
2022-10-30T10:57:02.178Z,7.80
2022-10-30T11:02:29.075Z,8.55
2022-10-30T11:07:46.826Z,6.83
2022-10-30T11:12:50.207Z,8.30
2022-10-30T11:18:01.556Z,6.93
2022-10-30T11:23:44.298Z,7.20
2022-10-30T11:28:51.763Z,6.65
2022-10-30T11:33:55.566Z,6.78
2022-10-30T11:39:18.992Z,9.00
2022-10-30T11:44:22.717Z,8.47
2022-10-30T11:49:36.267Z,9.65
2022-10-30T11:54:45.114Z,7.10
2022-10-30T11:59:49.191Z,8.73
2022-10-30T12:04:53.089Z,9.95
2022-10-30T12:09:59.469Z,8.98
2022-10-30T12:15:12.451Z,9.70
2022-10-30T12:20:17.368Z,8.97
2022-10-30T12:25:25.953Z,7.53
2022-10-30T12:30:32.371Z,8.55
2022-10-30T12:35:44.146Z,7.27
2022-10-30T12:41:04.349Z,9.20
2022-10-30T12:46:21.706Z,9.07
2022-10-30T12:51:28.890Z,6.23
2022-10-30T12:56:38.188Z,8.07
2022-10-30T13:01:47.225Z,8.80
2022-10-30T13:06:55.529Z,9.63
2022-10-30T13:12:05.821Z,6.93
2022-10-30T13:17:12.478Z,9.52
2022-10-30T13:22:21.685Z,10.70
2022-10-30T13:27:38.879Z,7.45
2022-10-30T13:32:56.203Z,9.02
2022-10-30T13:38:07.352Z,6.83
2022-10-30T13:43:22.099Z,8.17
2022-10-30T13:48:37.222Z,8.97
2022-10-30T13:53:46.057Z,8.90
2022-10-30T13:59:00.282Z,9.20
2022-10-30T14:04:08.556Z,8.13
2022-10-30T14:09:20.225Z,8.18
2022-10-30T14:14:30.406Z,12.77
2022-10-30T14:19:33.759Z,9.43
2022-10-30T14:24:44.504Z,10.63
2022-10-30T14:29:51.483Z,9.93
2022-10-30T14:34:59.917Z,11.88
2022-10-30T14:40:33.426Z,8.80
2022-10-30T14:45:49.024Z,9.43
2022-10-30T14:51:05.905Z,9.55
2022-10-30T14:56:20.303Z,8.70
2022-10-30T15:01:33.869Z,8.57
2022-10-30T15:06:44.722Z,10.73
2022-10-30T15:12:06.879Z,7.68
2022-10-30T15:17:24.122Z,9.50
2022-10-30T15:22:31.286Z,8.15
2022-10-30T15:27:37.310Z,8.90
2022-10-30T15:32:42.735Z,7.80
2022-10-30T15:37:59.536Z,9.13
2022-10-30T15:43:06.385Z,12.60
2022-10-30T15:48:23.335Z,12.27
2022-10-30T15:53:35.124Z,12.65
2022-10-30T15:58:38.691Z,11.63
2022-10-30T16:03:53.894Z,16.03
2022-10-30T16:08:57.536Z,22.52
2022-10-30T16:14:08.931Z,16.03
2022-10-30T16:19:26.282Z,19.23
2022-10-30T16:24:35.350Z,19.67
2022-10-30T16:29:39.048Z,16.88
2022-10-30T16:34:45.139Z,25.40
2022-10-30T16:39:51.244Z,20.33
2022-10-30T16:45:21.077Z,20.43
2022-10-30T16:50:32.419Z,15.05
2022-10-30T16:55:38.731Z,14.50
2022-10-30T17:00:43.016Z,18.52
2022-10-30T17:05:59.042Z,17.70
2022-10-30T17:11:03.834Z,17.67
2022-10-30T17:16:24.745Z,22.80
2022-10-30T17:21:38.686Z,15.98
2022-10-30T17:26:42.143Z,17.27
2022-10-30T17:31:45.621Z,17.08
2022-10-30T17:36:50.444Z,14.82
2022-10-30T17:41:57.176Z,18.42
2022-10-30T17:47:01.463Z,18.50
2022-10-30T17:52:06.220Z,15.13
2022-10-30T17:57:12.266Z,20.03
2022-10-30T18:02:17.590Z,18.02
2022-10-30T18:07:22.373Z,17.27
2022-10-30T18:12:25.680Z,17.43
2022-10-30T18:17:29.952Z,16.60
2022-10-30T18:22:34.813Z,13.47
2022-10-30T18:27:38.223Z,13.55
2022-10-30T18:32:41.559Z,14.27
2022-10-30T18:37:46.270Z,12.40
2022-10-30T18:42:49.626Z,15.17
2022-10-30T18:47:53.755Z,13.38
2022-10-30T18:52:59.448Z,11.00
2022-10-30T18:58:03.449Z,13.02
2022-10-30T19:03:07.891Z,11.52
2022-10-30T19:08:13.079Z,14.15
2022-10-30T19:13:19.678Z,14.67
2022-10-30T19:18:25.882Z,14.70
2022-10-30T19:23:30.680Z,16.00
2022-10-30T19:28:34.086Z,13.27
2022-10-30T19:33:37.410Z,15.07
2022-10-30T19:38:42.203Z,12.90
2022-10-30T19:43:45.577Z,10.30
2022-10-30T19:48:57.659Z,13.95
2022-10-30T19:54:03.523Z,13.25
2022-10-30T19:59:10.407Z,9.93
2022-10-30T20:04:14.040Z,11.52
2022-10-30T20:09:18.798Z,14.20
2022-10-30T20:14:22.125Z,15.82
2022-10-30T20:19:29.446Z,14.82
2022-10-30T20:24:34.176Z,12.43
2022-10-30T20:29:38.501Z,16.70
2022-10-30T20:34:42.160Z,11.90
2022-10-30T20:39:49.759Z,14.83
2022-10-30T20:44:53.094Z,11.77
2022-10-30T20:49:56.440Z,17.42
2022-10-30T20:55:02.347Z,18.95
2022-10-30T21:00:08.173Z,20.50
2022-10-30T21:05:38.199Z,19.33
2022-10-30T21:10:38.454Z,14.70
2022-10-30T21:15:43.282Z,14.75
2022-10-30T21:20:46.925Z,15.63
2022-10-30T21:26:00.169Z,16.30
2022-10-30T21:31:04.025Z,16.52
2022-10-30T21:36:12.355Z,17.02
2022-10-30T21:41:19.254Z,16.15
2022-10-30T21:46:23.873Z,13.85
2022-10-30T21:51:28.544Z,13.00
2022-10-30T21:56:33.318Z,14.43
2022-10-30T22:01:38.515Z,14.35
2022-10-30T22:06:43.506Z,12.90
2022-10-30T22:11:48.170Z,12.70
2022-10-30T22:16:51.515Z,12.65
2022-10-30T22:21:54.880Z,14.40
2022-10-30T22:26:59.566Z,13.13
2022-10-30T22:32:02.888Z,12.85
2022-10-30T22:37:06.179Z,12.50
2022-10-30T22:42:11.577Z,12.15
2022-10-30T22:47:14.952Z,9.32
2022-10-30T22:52:18.350Z,10.23
2022-10-30T22:57:23.118Z,11.27
2022-10-30T23:02:26.484Z,13.35
2022-10-30T23:07:29.822Z,13.52
2022-10-30T23:12:34.546Z,9.63
2022-10-30T23:17:37.970Z,11.10
2022-10-30T23:22:41.333Z,11.80
2022-10-30T23:27:46.109Z,11.90
2022-10-30T23:32:49.621Z,12.57
2022-10-30T23:37:53.504Z,12.88
2022-10-30T23:42:59.210Z,10.93
2022-10-30T23:48:03.031Z,15.82
2022-10-30T23:53:06.723Z,13.10
2022-10-30T23:58:11.487Z,11.17
